F/v_l'omerta — FHXG — position and weather

sailwx.info

Track history (hours):
 
Tides and Currents Weather Stations Pressure Air Temp Water Temp Dewpoint Dewpoint Depression Visibility Wind Speed Wind Dir Waves Ship Positions

F/v_l'omerta

Last reported at 2015-Apr-01 00:33 UTC. Time now 2015-Apr-01 01:15 UTC.
Position N 46°30' W 001°48'.

Length 18 m.

Type: Fishing. MMSI: 227903000.

Date/timePositionNaut miles runAvg speedWind from/ knotsBaromVisibWave heightAir tempDewpointWater temp
2015-Apr-01 00:33N 46°30' W 001°48'0 0.0
2015-Mar-31 23:33N 46°30' W 001°48'0 0.0
2015-Mar-31 22:33N 46°30' W 001°48'0 0.0
2015-Mar-31 21:33N 46°30' W 001°48'0 0.0
2015-Mar-31 20:33N 46°30' W 001°48'0 0.0
2015-Mar-31 19:33N 46°30' W 001°48'0 0.0
2015-Mar-31 18:33N 46°30' W 001°48'0 0.0
2015-Mar-31 17:33N 46°30' W 001°48'0 0.0
2015-Mar-31 16:33N 46°30' W 001°48'0 0.0
2015-Mar-31 15:33N 46°30' W 001°48'0 0.0
2015-Mar-31 14:33N 46°30' W 001°48'0 0.0
2015-Mar-31 13:33N 46°30' W 001°48'0 0.0
2015-Mar-31 12:33N 46°30' W 001°48'0 0.0
2015-Mar-31 11:33N 46°30' W 001°48'0 0.0
2015-Mar-31 10:33N 46°30' W 001°48'0 0.0
2015-Mar-31 09:33N 46°30' W 001°48'0 0.0
2015-Mar-31 08:33N 46°30' W 001°48'0 0.0
2015-Mar-31 07:33N 46°30' W 001°48'0 0.0
2015-Mar-31 06:34N 46°30' W 001°48'0 0.0
2015-Mar-31 05:33N 46°30' W 001°48'0 0.0
2015-Mar-31 04:33N 46°30' W 001°48'0 0.0
2015-Mar-31 03:33N 46°30' W 001°48'0 0.0
2015-Mar-31 02:33N 46°30' W 001°48'0 0.0
2015-Mar-31 01:33N 46°30' W 001°48'0 0.0
2015-Mar-31 00:33N 46°30' W 001°48'0 0.0
2015-Mar-30 23:33N 46°30' W 001°48'0 0.0
2015-Mar-30 22:33N 46°30' W 001°48'0 0.0
2015-Mar-30 21:33N 46°30' W 001°48'0 0.0
2015-Mar-30 20:33N 46°30' W 001°48'0 0.0
2015-Mar-30 19:33N 46°30' W 001°48'0 0.0
2015-Mar-30 18:33N 46°30' W 001°48'0 0.0
2015-Mar-30 17:33N 46°30' W 001°48'0 0.0
2015-Mar-30 16:33N 46°30' W 001°48'0 0.0
2015-Mar-30 15:33N 46°30' W 001°48'0 0.0
2015-Mar-30 14:33N 46°30' W 001°48'0 0.0
2015-Mar-30 13:33N 46°30' W 001°48'0 0.0
2015-Mar-30 12:33N 46°30' W 001°48'0 0.0
2015-Mar-30 11:33N 46°30' W 001°48'0 0.0
2015-Mar-30 10:33N 46°30' W 001°48'0 0.0
2015-Mar-30 09:33N 46°30' W 001°48'0 0.0
2015-Mar-30 08:33N 46°30' W 001°48'0 0.0
2015-Mar-30 07:33N 46°30' W 001°48'0 0.0
2015-Mar-30 06:33N 46°30' W 001°48'0 0.0
2015-Mar-30 05:33N 46°30' W 001°48'0 0.0
2015-Mar-30 04:33N 46°30' W 001°48'0 0.0
2015-Mar-30 03:33N 46°30' W 001°48'0 0.0
2015-Mar-30 02:33N 46°30' W 001°48'0 0.0
2015-Mar-30 01:33N 46°30' W 001°48'0 0.0
2015-Mar-30 00:33N 46°30' W 001°48'0 0.0
2015-Mar-29 23:33N 46°30' W 001°48'0 0.0
2015-Mar-29 22:33N 46°30' W 001°48'0 0.0
2015-Mar-29 21:33N 46°30' W 001°48'0 0.0
2015-Mar-29 20:33N 46°30' W 001°48'0 0.0
2015-Mar-29 19:33N 46°30' W 001°48'0 0.0
2015-Mar-29 18:33N 46°30' W 001°48'0 0.0
2015-Mar-29 17:33N 46°30' W 001°48'0 0.0
2015-Mar-29 16:33N 46°30' W 001°48'0 0.0
2015-Mar-29 15:33N 46°30' W 001°48'4 3.7
2015-Mar-29 14:33N 46°26' W 001°48'8 8.5
2015-Mar-29 13:33N 46°18' W 001°50'8 2.6
2015-Mar-29 10:33N 46°11' W 001°56'4 3.5
2015-Mar-29 09:29N 46°14' W 001°58'3 3.1
2015-Mar-29 08:32N 46°17' W 001°56'2 2.3
2015-Mar-29 07:33N 46°19' W 001°54'2 2.5
2015-Mar-29 06:33N 46°21' W 001°53'3 3.1
2015-Mar-29 05:33N 46°18' W 001°50'3 3.4
2015-Mar-29 04:33N 46°15' W 001°48'3 2.9
2015-Mar-29 03:33N 46°13' W 001°46'15 3.7
2015-Mar-28 23:32N 46°06' W 001°27'8 8.3
2015-Mar-28 22:33N 46°07' W 001°16'2 2.2
2015-Mar-28 21:33N 46°09' W 001°13'4 3.9
2015-Mar-28 20:33N 46°07' W 001°18'18 9.1
2015-Mar-28 18:32N 46°15' W 001°42'4 3.5
2015-Mar-28 17:28N 46°16' W 001°47'2 2.5
2015-Mar-28 16:33N 46°14' W 001°46'3 2.9
2015-Mar-28 15:33N 46°15' W 001°50'3 3.2
2015-Mar-28 14:32N 46°17' W 001°47'2 1.9
2015-Mar-28 13:33N 46°16' W 001°44'3 3.2
2015-Mar-28 12:33N 46°13' W 001°42'11 0.3
2015-Mar-26 21:21N 46°09' W 001°57'8 9.4
2015-Mar-26 20:33N 46°17' W 001°53'9 9.5
2015-Mar-26 19:33N 46°25' W 001°48'5 4.7
2015-Mar-26 18:33N 46°30' W 001°47'3 2.9
2015-Mar-26 17:33N 46°28' W 001°50'9 8.7
2015-Mar-26 16:33N 46°27' W 002°03'10 4.3
2015-Mar-26 14:08N 46°26' W 002°18'20 0.8
2015-Mar-25 11:33N 46°14' W 001°55'8 8.1
2015-Mar-25 10:33N 46°15' W 001°43'3 3.2
2015-Mar-25 09:32N 46°12' W 001°42'11 3.3
2015-Mar-25 06:21N 46°06' W 001°29'7 9.0
2015-Mar-25 05:33N 46°06' W 001°18'4 4.3
2015-Mar-25 04:33N 46°09' W 001°13'2 1.1
2015-Mar-25 02:33N 46°07' W 001°16'19 2.2
2015-Mar-24 17:33N 46°13' W 001°42'4 3.8
2015-Mar-24 16:33N 46°17' W 001°44'3 2.6
2015-Mar-24 15:33N 46°19' W 001°44'3 3.3
2015-Mar-24 14:33N 46°16' W 001°44'4 3.7
2015-Mar-24 13:33N 46°12' W 001°42'5 0.8
2015-Mar-24 07:33N 46°17' W 001°44'4 3.9
2015-Mar-24 06:33N 46°20' W 001°43'9 8.9
2015-Mar-24 05:33N 46°29' W 001°47'1 1.1
2015-Mar-24 04:33N 46°30' W 001°47'0 0.0
2015-Mar-24 03:33N 46°30' W 001°47'0 0.0
2015-Mar-24 02:33N 46°30' W 001°47'0 0.0
2015-Mar-24 01:33N 46°30' W 001°47'0 0.0
2015-Mar-24 00:33N 46°30' W 001°47'0 0.0
2015-Mar-23 23:33N 46°30' W 001°47'0 0.0
2015-Mar-23 22:33N 46°30' W 001°47'0 0.0
2015-Mar-23 21:33N 46°30' W 001°47'0 0.0
2015-Mar-23 20:33N 46°30' W 001°47'0 0.0
2015-Mar-23 19:33N 46°30' W 001°47'0 0.0
2015-Mar-23 18:33N 46°30' W 001°47'0 0.0
2015-Mar-23 17:33N 46°30' W 001°47'0 0.0
2015-Mar-23 16:33N 46°30' W 001°47'0 0.0
2015-Mar-23 15:33N 46°30' W 001°47'0 0.0
2015-Mar-23 14:33N 46°30' W 001°47'0 0.0
2015-Mar-23 13:33N 46°30' W 001°47'0 0.0
2015-Mar-23 12:33N 46°30' W 001°47'0 0.0
2015-Mar-23 11:33N 46°30' W 001°47'0 0.0
2015-Mar-23 10:33N 46°30' W 001°47'0 0.0
2015-Mar-23 09:33N 46°30' W 001°47'0 0.0
2015-Mar-23 08:33N 46°30' W 001°47'0 0.0
2015-Mar-23 07:33N 46°30' W 001°47'0 0.0
2015-Mar-23 06:33N 46°30' W 001°47'0 0.0
2015-Mar-23 05:33N 46°30' W 001°47'0 0.0
2015-Mar-23 04:33N 46°30' W 001°47'0 0.0
2015-Mar-23 03:33N 46°30' W 001°47'0 0.0
2015-Mar-23 02:33N 46°30' W 001°47'0 0.0
2015-Mar-23 01:33N 46°30' W 001°47'0 0.0
2015-Mar-23 00:33N 46°30' W 001°47'0 0.0
2015-Mar-22 23:33N 46°30' W 001°47'0 0.0
2015-Mar-22 22:33N 46°30' W 001°47'0 0.0
2015-Mar-22 21:33N 46°30' W 001°47'0 0.0
2015-Mar-22 20:33N 46°30' W 001°47'0 0.0
2015-Mar-22 19:33N 46°30' W 001°47'0 0.0
2015-Mar-22 18:33N 46°30' W 001°47'0 0.1
2015-Mar-22 17:33N 46°30' W 001°47'1 0.9
2015-Mar-22 16:33N 46°29' W 001°47'8 8.3
2015-Mar-22 15:33N 46°21' W 001°42'3 3.2
2015-Mar-22 14:33N 46°18' W 001°44'3 3.4
2015-Mar-22 13:33N 46°15' W 001°43'4 3.5
2015-Mar-22 12:26N 46°11' W 001°41'  
Track history (hours):
 
Tides and Currents Weather Stations Pressure Air Temp Water Temp Dewpoint Dewpoint Depression Visibility Wind Speed Wind Dir Waves Ship Positions

F/v_l'omerta

Last reported at 2015-Apr-01 00:33 UTC. Time now 2015-Apr-01 01:15 UTC.
Position N 46°30' W 001°48'.

Length 18 m.

Type: Fishing. MMSI: 227903000.

Date/timePositionNaut miles runAvg speedWind from/ knotsBaromVisibWave heightAir tempDewpointWater temp
2015-Apr-01 00:33N 46°30' W 001°48'0 0.0
2015-Mar-31 23:33N 46°30' W 001°48'0 0.0
2015-Mar-31 22:33N 46°30' W 001°48'0 0.0
2015-Mar-31 21:33N 46°30' W 001°48'0 0.0
2015-Mar-31 20:33N 46°30' W 001°48'0 0.0
2015-Mar-31 19:33N 46°30' W 001°48'0 0.0
2015-Mar-31 18:33N 46°30' W 001°48'0 0.0
2015-Mar-31 17:33N 46°30' W 001°48'0 0.0
2015-Mar-31 16:33N 46°30' W 001°48'0 0.0
2015-Mar-31 15:33N 46°30' W 001°48'0 0.0
2015-Mar-31 14:33N 46°30' W 001°48'0 0.0
2015-Mar-31 13:33N 46°30' W 001°48'0 0.0
2015-Mar-31 12:33N 46°30' W 001°48'0 0.0
2015-Mar-31 11:33N 46°30' W 001°48'0 0.0
2015-Mar-31 10:33N 46°30' W 001°48'0 0.0
2015-Mar-31 09:33N 46°30' W 001°48'0 0.0
2015-Mar-31 08:33N 46°30' W 001°48'0 0.0
2015-Mar-31 07:33N 46°30' W 001°48'0 0.0
2015-Mar-31 06:34N 46°30' W 001°48'0 0.0
2015-Mar-31 05:33N 46°30' W 001°48'0 0.0
2015-Mar-31 04:33N 46°30' W 001°48'0 0.0
2015-Mar-31 03:33N 46°30' W 001°48'0 0.0
2015-Mar-31 02:33N 46°30' W 001°48'0 0.0
2015-Mar-31 01:33N 46°30' W 001°48'0 0.0
2015-Mar-31 00:33N 46°30' W 001°48'0 0.0
2015-Mar-30 23:33N 46°30' W 001°48'0 0.0
2015-Mar-30 22:33N 46°30' W 001°48'0 0.0
2015-Mar-30 21:33N 46°30' W 001°48'0 0.0
2015-Mar-30 20:33N 46°30' W 001°48'0 0.0
2015-Mar-30 19:33N 46°30' W 001°48'0 0.0
2015-Mar-30 18:33N 46°30' W 001°48'0 0.0
2015-Mar-30 17:33N 46°30' W 001°48'0 0.0
2015-Mar-30 16:33N 46°30' W 001°48'0 0.0
2015-Mar-30 15:33N 46°30' W 001°48'0 0.0
2015-Mar-30 14:33N 46°30' W 001°48'0 0.0
2015-Mar-30 13:33N 46°30' W 001°48'0 0.0
2015-Mar-30 12:33N 46°30' W 001°48'0 0.0
2015-Mar-30 11:33N 46°30' W 001°48'0 0.0
2015-Mar-30 10:33N 46°30' W 001°48'0 0.0
2015-Mar-30 09:33N 46°30' W 001°48'0 0.0
2015-Mar-30 08:33N 46°30' W 001°48'0 0.0
2015-Mar-30 07:33N 46°30' W 001°48'0 0.0
2015-Mar-30 06:33N 46°30' W 001°48'0 0.0
2015-Mar-30 05:33N 46°30' W 001°48'0 0.0
2015-Mar-30 04:33N 46°30' W 001°48'0 0.0
2015-Mar-30 03:33N 46°30' W 001°48'0 0.0
2015-Mar-30 02:33N 46°30' W 001°48'0 0.0
2015-Mar-30 01:33N 46°30' W 001°48'0 0.0
2015-Mar-30 00:33N 46°30' W 001°48'0 0.0
2015-Mar-29 23:33N 46°30' W 001°48'0 0.0
2015-Mar-29 22:33N 46°30' W 001°48'0 0.0
2015-Mar-29 21:33N 46°30' W 001°48'0 0.0
2015-Mar-29 20:33N 46°30' W 001°48'0 0.0
2015-Mar-29 19:33N 46°30' W 001°48'0 0.0
2015-Mar-29 18:33N 46°30' W 001°48'0 0.0
2015-Mar-29 17:33N 46°30' W 001°48'0 0.0
2015-Mar-29 16:33N 46°30' W 001°48'0 0.0
2015-Mar-29 15:33N 46°30' W 001°48'4 3.7
2015-Mar-29 14:33N 46°26' W 001°48'8 8.5
2015-Mar-29 13:33N 46°18' W 001°50'8 2.6
2015-Mar-29 10:33N 46°11' W 001°56'4 3.5
2015-Mar-29 09:29N 46°14' W 001°58'3 3.1
2015-Mar-29 08:32N 46°17' W 001°56'2 2.3
2015-Mar-29 07:33N 46°19' W 001°54'2 2.5
2015-Mar-29 06:33N 46°21' W 001°53'3 3.1
2015-Mar-29 05:33N 46°18' W 001°50'3 3.4
2015-Mar-29 04:33N 46°15' W 001°48'3 2.9
2015-Mar-29 03:33N 46°13' W 001°46'15 3.7
2015-Mar-28 23:32N 46°06' W 001°27'8 8.3
2015-Mar-28 22:33N 46°07' W 001°16'2 2.2
2015-Mar-28 21:33N 46°09' W 001°13'4 3.9
2015-Mar-28 20:33N 46°07' W 001°18'18 9.1
2015-Mar-28 18:32N 46°15' W 001°42'4 3.5
2015-Mar-28 17:28N 46°16' W 001°47'2 2.5
2015-Mar-28 16:33N 46°14' W 001°46'3 2.9
2015-Mar-28 15:33N 46°15' W 001°50'3 3.2
2015-Mar-28 14:32N 46°17' W 001°47'2 1.9
2015-Mar-28 13:33N 46°16' W 001°44'3 3.2
2015-Mar-28 12:33N 46°13' W 001°42'11 0.3
2015-Mar-26 21:21N 46°09' W 001°57'8 9.4
2015-Mar-26 20:33N 46°17' W 001°53'9 9.5
2015-Mar-26 19:33N 46°25' W 001°48'5 4.7
2015-Mar-26 18:33N 46°30' W 001°47'3 2.9
2015-Mar-26 17:33N 46°28' W 001°50'9 8.7
2015-Mar-26 16:33N 46°27' W 002°03'10 4.3
2015-Mar-26 14:08N 46°26' W 002°18'20 0.8
2015-Mar-25 11:33N 46°14' W 001°55'8 8.1
2015-Mar-25 10:33N 46°15' W 001°43'3 3.2
2015-Mar-25 09:32N 46°12' W 001°42'11 3.3
2015-Mar-25 06:21N 46°06' W 001°29'7 9.0
2015-Mar-25 05:33N 46°06' W 001°18'4 4.3
2015-Mar-25 04:33N 46°09' W 001°13'2 1.1
2015-Mar-25 02:33N 46°07' W 001°16'19 2.2
2015-Mar-24 17:33N 46°13' W 001°42'4 3.8
2015-Mar-24 16:33N 46°17' W 001°44'3 2.6
2015-Mar-24 15:33N 46°19' W 001°44'3 3.3
2015-Mar-24 14:33N 46°16' W 001°44'4 3.7
2015-Mar-24 13:33N 46°12' W 001°42'5 0.8
2015-Mar-24 07:33N 46°17' W 001°44'4 3.9
2015-Mar-24 06:33N 46°20' W 001°43'9 8.9
2015-Mar-24 05:33N 46°29' W 001°47'1 1.1
2015-Mar-24 04:33N 46°30' W 001°47'0 0.0
2015-Mar-24 03:33N 46°30' W 001°47'0 0.0
2015-Mar-24 02:33N 46°30' W 001°47'0 0.0
2015-Mar-24 01:33N 46°30' W 001°47'0 0.0
2015-Mar-24 00:33N 46°30' W 001°47'0 0.0
2015-Mar-23 23:33N 46°30' W 001°47'0 0.0
2015-Mar-23 22:33N 46°30' W 001°47'0 0.0
2015-Mar-23 21:33N 46°30' W 001°47'0 0.0
2015-Mar-23 20:33N 46°30' W 001°47'0 0.0
2015-Mar-23 19:33N 46°30' W 001°47'0 0.0
2015-Mar-23 18:33N 46°30' W 001°47'0 0.0
2015-Mar-23 17:33N 46°30' W 001°47'0 0.0
2015-Mar-23 16:33N 46°30' W 001°47'0 0.0
2015-Mar-23 15:33N 46°30' W 001°47'0 0.0
2015-Mar-23 14:33N 46°30' W 001°47'0 0.0
2015-Mar-23 13:33N 46°30' W 001°47'0 0.0
2015-Mar-23 12:33N 46°30' W 001°47'0 0.0
2015-Mar-23 11:33N 46°30' W 001°47'0 0.0
2015-Mar-23 10:33N 46°30' W 001°47'0 0.0
2015-Mar-23 09:33N 46°30' W 001°47'0 0.0
2015-Mar-23 08:33N 46°30' W 001°47'0 0.0
2015-Mar-23 07:33N 46°30' W 001°47'0 0.0
2015-Mar-23 06:33N 46°30' W 001°47'0 0.0
2015-Mar-23 05:33N 46°30' W 001°47'0 0.0
2015-Mar-23 04:33N 46°30' W 001°47'0 0.0
2015-Mar-23 03:33N 46°30' W 001°47'0 0.0
2015-Mar-23 02:33N 46°30' W 001°47'0 0.0
2015-Mar-23 01:33N 46°30' W 001°47'0 0.0
2015-Mar-23 00:33N 46°30' W 001°47'0 0.0
2015-Mar-22 23:33N 46°30' W 001°47'0 0.0
2015-Mar-22 22:33N 46°30' W 001°47'0 0.0
2015-Mar-22 21:33N 46°30' W 001°47'0 0.0
2015-Mar-22 20:33N 46°30' W 001°47'0 0.0
2015-Mar-22 19:33N 46°30' W 001°47'0 0.0
2015-Mar-22 18:33N 46°30' W 001°47'0 0.1
2015-Mar-22 17:33N 46°30' W 001°47'1 0.9
2015-Mar-22 16:33N 46°29' W 001°47'8 8.3
2015-Mar-22 15:33N 46°21' W 001°42'3 3.2
2015-Mar-22 14:33N 46°18' W 001°44'3 3.4
2015-Mar-22 13:33N 46°15' W 001°43'4 3.5
2015-Mar-22 12:26N 46°11' W 001°41'  

Dump ship's entire track history